createdAt,value
2018-02-08T00:00:44.591Z,0.90
2018-02-08T00:03:12.828Z,0.90
2018-02-08T00:05:41.092Z,0.90
2018-02-08T00:08:08.545Z,0.90
2018-02-08T00:10:36.050Z,0.90
2018-02-08T00:13:04.280Z,0.90
2018-02-08T00:15:31.769Z,0.90
2018-02-08T00:17:59.252Z,0.90
2018-02-08T00:20:27.508Z,0.90
2018-02-08T00:22:55.751Z,0.80
2018-02-08T00:25:23.250Z,0.80
2018-02-08T00:27:51.493Z,0.90
2018-02-08T00:30:19.030Z,0.80
2018-02-08T00:32:46.501Z,0.90
2018-02-08T00:35:14.025Z,0.90
2018-02-08T00:37:41.491Z,0.90
2018-02-08T00:40:08.971Z,0.90
2018-02-08T00:42:36.467Z,1.00
2018-02-08T00:45:04.730Z,0.90
2018-02-08T00:47:32.959Z,1.00
2018-02-08T00:50:00.425Z,1.00
2018-02-08T00:52:27.927Z,1.00
2018-02-08T00:54:56.190Z,0.90
2018-02-08T00:57:24.413Z,0.90
2018-02-08T00:59:51.915Z,0.90
2018-02-08T01:02:19.393Z,0.80
2018-02-08T01:04:47.652Z,0.90
2018-02-08T01:07:15.894Z,0.90
2018-02-08T01:09:43.365Z,0.90
2018-02-08T01:12:10.862Z,0.90
2018-02-08T01:14:38.332Z,0.90
2018-02-08T01:17:05.823Z,0.80
2018-02-08T01:19:33.335Z,0.80
2018-02-08T01:22:00.822Z,0.80
2018-02-08T01:24:28.579Z,0.80
2018-02-08T01:26:56.079Z,0.80
2018-02-08T01:29:24.314Z,0.80
2018-02-08T01:31:51.818Z,0.80
2018-02-08T01:34:20.059Z,0.80
2018-02-08T01:36:47.565Z,0.80
2018-02-08T01:39:15.049Z,0.80
2018-02-08T01:41:42.550Z,0.80
2018-02-08T01:44:10.027Z,0.80
2018-02-08T01:46:37.495Z,0.80
2018-02-08T01:49:04.994Z,0.80
2018-02-08T01:51:32.467Z,0.80
2018-02-08T01:53:59.963Z,0.80
2018-02-08T01:56:27.440Z,0.90
2018-02-08T01:58:54.934Z,0.90
2018-02-08T02:01:22.402Z,0.90
2018-02-08T02:03:50.657Z,0.90
2018-02-08T02:06:18.154Z,0.90
2018-02-08T02:08:45.662Z,0.90
2018-02-08T02:11:13.146Z,0.90
2018-02-08T02:13:41.378Z,0.80
2018-02-08T02:16:09.623Z,0.80
2018-02-08T02:18:37.096Z,0.80
2018-02-08T02:21:04.600Z,0.80
2018-02-08T02:23:32.067Z,0.80
2018-02-08T02:26:00.331Z,0.80
2018-02-08T02:28:27.847Z,0.80
2018-02-08T02:30:55.316Z,0.80
2018-02-08T02:33:23.565Z,0.80
2018-02-08T02:35:51.059Z,0.80
2018-02-08T02:38:18.567Z,0.80
2018-02-08T02:40:46.057Z,0.80
2018-02-08T02:43:13.517Z,0.80
2018-02-08T02:45:40.998Z,0.80
2018-02-08T02:48:09.235Z,0.80
2018-02-08T02:50:36.725Z,0.80
2018-02-08T02:53:04.214Z,0.80
2018-02-08T02:55:31.684Z,0.80
2018-02-08T02:57:59.188Z,0.80
2018-02-08T03:00:26.661Z,0.80
2018-02-08T03:02:54.898Z,0.80
2018-02-08T03:05:23.153Z,0.70
2018-02-08T03:07:50.616Z,0.70
2018-02-08T03:10:18.116Z,0.70
2018-02-08T03:12:46.345Z,0.60
2018-02-08T03:15:13.836Z,0.60
2018-02-08T03:17:41.304Z,0.60
2018-02-08T03:20:08.769Z,0.60
2018-02-08T03:22:37.023Z,0.60
2018-02-08T03:25:04.485Z,0.60
2018-02-08T03:27:32.743Z,0.70
2018-02-08T03:30:00.237Z,0.70
2018-02-08T03:32:27.703Z,0.70
2018-02-08T03:34:55.180Z,0.80
2018-02-08T03:37:22.689Z,0.80
2018-02-08T03:39:50.920Z,0.90
2018-02-08T03:42:18.379Z,0.90
2018-02-08T03:44:45.884Z,0.90
2018-02-08T03:47:14.122Z,1.00
2018-02-08T03:49:41.580Z,1.00
2018-02-08T03:52:09.085Z,1.00
2018-02-08T03:54:36.558Z,1.00
2018-02-08T03:57:04.021Z,0.90
2018-02-08T03:59:31.522Z,0.90
2018-02-08T04:01:58.986Z,0.90
2018-02-08T04:04:27.274Z,0.70
2018-02-08T04:06:55.529Z,0.70
2018-02-08T04:09:22.994Z,0.70
2018-02-08T04:11:51.263Z,0.70
2018-02-08T04:14:19.496Z,0.70
2018-02-08T04:16:46.965Z,0.70
2018-02-08T04:19:14.462Z,0.70
2018-02-08T04:21:41.952Z,0.70
2018-02-08T04:24:09.416Z,0.80
2018-02-08T04:26:37.001Z,0.80
2018-02-08T04:29:04.510Z,0.80
2018-02-08T04:31:31.978Z,0.80
2018-02-08T04:33:59.597Z,0.80
2018-02-08T04:36:27.828Z,0.80
2018-02-08T04:39:07.258Z,0.80
2018-02-08T04:41:50.676Z,0.80
2018-02-08T04:44:29.789Z,0.80
2018-02-08T04:47:09.330Z,0.80
2018-02-08T04:49:36.817Z,0.80
2018-02-08T04:52:04.291Z,0.80
2018-02-08T04:54:31.780Z,0.70
2018-02-08T04:57:00.023Z,0.80
2018-02-08T04:59:27.529Z,0.80
2018-02-08T05:01:55.004Z,0.80
2018-02-08T05:04:22.477Z,0.80
2018-02-08T05:06:49.977Z,0.80
2018-02-08T05:09:18.231Z,0.80
2018-02-08T05:11:45.738Z,0.80
2018-02-08T05:14:13.208Z,0.80
2018-02-08T05:16:40.707Z,0.80
2018-02-08T05:19:08.182Z,0.80
2018-02-08T05:21:36.459Z,0.80
2018-02-08T05:24:04.700Z,0.80
2018-02-08T05:26:32.171Z,0.80
2018-02-08T05:28:59.668Z,0.80
2018-02-08T05:31:27.154Z,0.80
2018-02-08T05:33:54.645Z,0.80
2018-02-08T05:36:22.877Z,0.80
2018-02-08T05:38:50.411Z,0.80
2018-02-08T05:41:17.958Z,0.80
2018-02-08T05:43:45.417Z,0.90
2018-02-08T05:46:12.911Z,0.90
2018-02-08T05:48:40.398Z,0.90
2018-02-08T05:51:07.886Z,0.90
2018-02-08T05:53:35.391Z,0.90
2018-02-08T05:56:02.854Z,0.90
2018-02-08T05:58:30.336Z,0.80
2018-02-08T06:00:58.590Z,0.80
2018-02-08T06:03:26.061Z,0.80
2018-02-08T06:05:54.319Z,0.80
2018-02-08T06:08:21.794Z,0.80
2018-02-08T06:10:50.064Z,0.80
2018-02-08T06:13:18.296Z,0.80
2018-02-08T06:15:45.762Z,0.80
2018-02-08T06:18:13.263Z,0.70
2018-02-08T06:20:41.515Z,0.80
2018-02-08T06:23:09.770Z,0.70
2018-02-08T06:25:37.237Z,0.70
2018-02-08T06:28:04.725Z,0.80
2018-02-08T06:30:32.253Z,0.80
2018-02-08T06:32:59.696Z,0.80
2018-02-08T06:35:27.165Z,0.80
2018-02-08T06:37:54.676Z,0.80
2018-02-08T06:40:22.152Z,0.80
2018-02-08T06:42:49.614Z,0.80
2018-02-08T06:45:17.101Z,0.80
2018-02-08T06:47:45.402Z,0.80
2018-02-08T06:50:12.892Z,0.80
2018-02-08T06:52:40.358Z,0.80
2018-02-08T06:55:08.616Z,0.90
2018-02-08T06:57:36.081Z,0.90
2018-02-08T07:00:03.574Z,0.90
2018-02-08T07:02:31.828Z,0.90
2018-02-08T07:04:59.294Z,0.90
2018-02-08T07:07:26.781Z,0.90
2018-02-08T07:09:54.254Z,0.90
2018-02-08T07:12:21.748Z,0.90
2018-02-08T07:14:49.214Z,0.90
2018-02-08T07:17:16.706Z,0.90
2018-02-08T07:19:44.164Z,0.90
2018-02-08T07:22:11.662Z,0.80
2018-02-08T07:24:39.922Z,0.70
2018-02-08T07:27:07.410Z,0.70
2018-02-08T07:29:35.002Z,0.70
2018-02-08T07:32:03.241Z,0.60
2018-02-08T07:34:30.711Z,0.60
2018-02-08T07:36:58.211Z,0.60
2018-02-08T07:39:25.697Z,0.60
2018-02-08T07:41:53.174Z,0.60
2018-02-08T07:44:20.650Z,0.70
2018-02-08T07:46:48.906Z,0.60
2018-02-08T07:49:16.380Z,0.60
2018-02-08T07:51:44.621Z,0.70
2018-02-08T07:54:12.114Z,0.70
2018-02-08T07:56:40.386Z,0.70
2018-02-08T07:59:08.615Z,0.70
2018-02-08T08:01:36.093Z,0.70
2018-02-08T08:04:03.587Z,0.70
2018-02-08T08:06:31.046Z,0.60
2018-02-08T08:08:58.526Z,0.70
2018-02-08T08:11:25.999Z,0.70
2018-02-08T08:13:53.498Z,0.70
2018-02-08T08:16:21.738Z,0.70
2018-02-08T08:18:49.205Z,0.70
2018-02-08T08:21:16.709Z,0.70
2018-02-08T08:23:44.180Z,0.70
2018-02-08T08:26:11.644Z,0.80
2018-02-08T08:28:39.125Z,0.80
2018-02-08T08:31:06.594Z,0.80
2018-02-08T08:33:34.866Z,0.80
2018-02-08T08:36:02.331Z,0.80
2018-02-08T08:38:29.822Z,0.90
2018-02-08T08:40:57.294Z,1.00
2018-02-08T08:43:24.785Z,1.10
2018-02-08T08:45:52.286Z,1.20
2018-02-08T08:48:19.758Z,1.20
2018-02-08T08:50:47.235Z,1.30
2018-02-08T08:53:14.730Z,1.30
2018-02-08T08:55:42.970Z,1.30
2018-02-08T08:58:10.475Z,1.30
2018-02-08T09:00:37.959Z,1.30
2018-02-08T09:03:05.436Z,1.30
2018-02-08T09:05:32.957Z,1.30
2018-02-08T09:08:00.422Z,1.30
2018-02-08T09:10:27.893Z,1.30
2018-02-08T09:12:55.397Z,1.30
2018-02-08T09:15:23.638Z,1.20
2018-02-08T09:17:51.131Z,1.30
2018-02-08T09:20:19.382Z,1.30
2018-02-08T09:22:46.888Z,1.30
2018-02-08T09:25:14.385Z,1.30
2018-02-08T09:27:42.617Z,1.30
2018-02-08T09:30:10.081Z,1.40
2018-02-08T09:32:37.586Z,1.40
2018-02-08T09:35:05.053Z,1.40
2018-02-08T09:37:33.321Z,1.40
2018-02-08T09:40:00.823Z,1.40
2018-02-08T09:42:28.315Z,1.40
2018-02-08T09:44:55.786Z,1.50
2018-02-08T09:47:23.268Z,1.50
2018-02-08T09:49:50.779Z,1.50
2018-02-08T09:52:18.263Z,1.50
2018-02-08T09:54:45.727Z,1.50
2018-02-08T09:57:13.994Z,1.60
2018-02-08T09:59:42.222Z,1.60
2018-02-08T10:02:09.694Z,1.60
2018-02-08T10:04:37.194Z,1.60
2018-02-08T10:07:04.675Z,1.60
2018-02-08T10:09:32.143Z,1.70
2018-02-08T10:11:59.640Z,1.70
2018-02-08T10:14:27.106Z,1.70
2018-02-08T10:16:55.355Z,1.80
2018-02-08T10:19:22.833Z,1.70
2018-02-08T10:21:51.083Z,1.80
2018-02-08T10:24:18.574Z,1.80
2018-02-08T10:26:46.829Z,1.90
2018-02-08T10:29:15.070Z,1.90
2018-02-08T10:31:42.558Z,1.90
2018-02-08T10:34:10.036Z,1.90
2018-02-08T10:36:38.299Z,1.90
2018-02-08T10:39:06.529Z,1.90
2018-02-08T10:41:34.008Z,1.90
2018-02-08T10:44:01.502Z,1.90
2018-02-08T10:46:28.966Z,2.00
2018-02-08T10:48:56.466Z,2.00
2018-02-08T10:51:23.937Z,2.00
2018-02-08T10:53:51.429Z,2.00
2018-02-08T10:56:18.935Z,2.00
2018-02-08T10:58:46.412Z,2.10
2018-02-08T11:01:13.883Z,2.10
2018-02-08T11:03:42.230Z,2.00
2018-02-08T11:06:09.701Z,2.00
2018-02-08T11:08:37.173Z,2.10
2018-02-08T11:11:05.438Z,2.10
2018-02-08T11:13:32.900Z,2.10
2018-02-08T11:16:01.146Z,2.10
2018-02-08T11:18:28.729Z,2.10
2018-02-08T11:20:56.981Z,2.10
2018-02-08T11:23:24.453Z,2.10
2018-02-08T11:25:51.954Z,2.10
2018-02-08T11:28:19.422Z,2.10
2018-02-08T11:30:47.684Z,2.10
2018-02-08T11:33:15.158Z,2.00
2018-02-08T11:35:42.655Z,2.00
2018-02-08T11:38:10.924Z,2.10
2018-02-08T11:40:38.398Z,2.10
2018-02-08T11:43:06.667Z,2.10
2018-02-08T11:45:34.942Z,2.10
2018-02-08T11:48:03.187Z,2.00
2018-02-08T11:50:30.647Z,2.00
2018-02-08T11:52:58.223Z,2.10
2018-02-08T11:55:25.688Z,2.10
2018-02-08T11:57:53.931Z,2.30
2018-02-08T12:00:21.437Z,2.30
2018-02-08T12:02:48.909Z,2.30
2018-02-08T12:05:16.387Z,2.40
2018-02-08T12:07:43.879Z,2.40
2018-02-08T12:10:12.131Z,2.30
2018-02-08T12:12:39.606Z,2.30
2018-02-08T12:15:07.113Z,2.30
2018-02-08T12:17:34.598Z,2.40
2018-02-08T12:20:02.069Z,2.40
2018-02-08T12:22:29.578Z,2.50
2018-02-08T12:24:57.067Z,2.50
2018-02-08T12:27:24.529Z,2.60
2018-02-08T12:29:52.034Z,2.70
2018-02-08T12:32:19.494Z,2.70
2018-02-08T12:34:46.956Z,2.90
2018-02-08T12:37:14.460Z,3.00
2018-02-08T12:39:41.924Z,3.20
2018-02-08T12:42:09.405Z,3.40
2018-02-08T12:44:36.906Z,3.50
2018-02-08T12:47:05.046Z,3.50
2018-02-08T12:49:32.522Z,3.60
2018-02-08T12:52:00.016Z,3.90
2018-02-08T12:54:27.482Z,4.10
2018-02-08T12:56:55.762Z,4.50
2018-02-08T12:59:23.223Z,4.40
2018-02-08T13:01:51.458Z,4.80
2018-02-08T13:04:19.738Z,5.10
2018-02-08T13:06:47.214Z,5.10
2018-02-08T13:09:14.799Z,5.20
2018-02-08T13:11:43.022Z,5.50
2018-02-08T13:14:10.485Z,5.50
2018-02-08T13:16:37.975Z,5.70
2018-02-08T13:19:06.247Z,6.00
2018-02-08T13:21:34.472Z,6.20
2018-02-08T13:24:02.036Z,6.10
2018-02-08T13:26:30.261Z,6.40
2018-02-08T13:28:57.764Z,6.40
2018-02-08T13:31:26.035Z,6.40
2018-02-08T13:33:53.574Z,6.50
2018-02-08T13:36:21.087Z,6.60
2018-02-08T13:38:48.559Z,6.60
2018-02-08T13:41:19.689Z,6.70
2018-02-08T13:43:47.942Z,6.60
2018-02-08T13:46:15.418Z,6.60
2018-02-08T13:48:42.890Z,6.40
2018-02-08T13:51:25.738Z,6.00
2018-02-08T13:53:58.962Z,6.00
2018-02-08T13:56:32.266Z,5.70
2018-02-08T13:59:02.179Z,5.30
2018-02-08T14:01:30.478Z,5.10
2018-02-08T14:03:58.709Z,4.90
2018-02-08T14:06:26.179Z,4.90
2018-02-08T14:08:53.663Z,4.80
2018-02-08T14:11:21.130Z,4.80
2018-02-08T14:13:48.623Z,4.80
2018-02-08T14:16:16.883Z,4.80
2018-02-08T14:18:44.392Z,4.80
2018-02-08T14:21:12.664Z,4.70
2018-02-08T14:23:40.902Z,4.60
2018-02-08T14:26:08.394Z,4.60
2018-02-08T14:28:36.626Z,4.40
2018-02-08T14:31:04.121Z,4.40
2018-02-08T14:33:32.407Z,4.20
2018-02-08T14:36:00.640Z,4.10
2018-02-08T14:38:28.175Z,4.00
2018-02-08T14:40:55.662Z,4.00
2018-02-08T14:43:23.138Z,4.00
2018-02-08T14:45:50.630Z,3.90
2018-02-08T14:48:18.106Z,3.90
2018-02-08T14:50:45.575Z,3.80
2018-02-08T14:53:13.071Z,3.80
2018-02-08T14:55:41.304Z,3.80
2018-02-08T14:58:08.811Z,3.80
2018-02-08T15:00:37.050Z,3.80
2018-02-08T15:03:04.530Z,3.80
2018-02-08T15:05:32.019Z,3.80
2018-02-08T15:07:59.493Z,3.70
2018-02-08T15:10:26.961Z,3.70
2018-02-08T15:12:54.454Z,3.60
2018-02-08T15:15:22.724Z,3.60
2018-02-08T15:17:50.230Z,3.60
2018-02-08T15:20:17.745Z,3.60
2018-02-08T15:22:45.217Z,3.60
2018-02-08T15:25:13.446Z,3.60
2018-02-08T15:27:40.974Z,3.60
2018-02-08T15:30:08.452Z,3.60
2018-02-08T15:32:35.919Z,3.60
2018-02-08T15:35:03.419Z,3.60
2018-02-08T15:37:30.909Z,3.60
2018-02-08T15:39:58.383Z,3.60
2018-02-08T15:42:25.927Z,3.50
2018-02-08T15:44:53.406Z,3.50
2018-02-08T15:47:20.887Z,3.50
2018-02-08T15:49:49.139Z,3.40
2018-02-08T15:52:16.642Z,3.40
2018-02-08T15:54:44.136Z,3.40
2018-02-08T15:57:11.611Z,3.40
2018-02-08T15:59:39.185Z,3.40
2018-02-08T16:02:07.453Z,3.40
2018-02-08T16:04:34.947Z,3.40
2018-02-08T16:07:02.430Z,3.40
2018-02-08T16:09:29.909Z,3.40
2018-02-08T16:11:57.430Z,3.40
2018-02-08T16:14:24.927Z,3.40
2018-02-08T16:16:52.398Z,3.40
2018-02-08T16:19:20.669Z,3.30
2018-02-08T16:21:48.904Z,3.30
2018-02-08T16:24:17.251Z,3.20
2018-02-08T16:26:44.727Z,3.20
2018-02-08T16:29:12.239Z,3.20
2018-02-08T16:31:40.537Z,3.20
2018-02-08T16:34:08.010Z,3.20
2018-02-08T16:36:35.505Z,3.20
2018-02-08T16:39:03.005Z,3.20
2018-02-08T16:41:30.507Z,3.20
2018-02-08T16:43:57.983Z,3.10
2018-02-08T16:46:25.471Z,3.00
2018-02-08T16:48:52.973Z,3.00
2018-02-08T16:51:20.453Z,2.90
2018-02-08T16:53:48.728Z,3.00
2018-02-08T16:56:17.011Z,3.00
2018-02-08T16:58:45.260Z,3.00
2018-02-08T17:01:12.735Z,3.00
2018-02-08T17:03:41.011Z,3.10
2018-02-08T17:06:09.246Z,3.00
2018-02-08T17:08:36.752Z,3.00
2018-02-08T17:11:05.015Z,2.90
2018-02-08T17:13:33.248Z,2.90
2018-02-08T17:16:00.756Z,2.80
2018-02-08T17:18:28.991Z,2.80
2018-02-08T17:20:56.494Z,2.80
2018-02-08T17:23:23.993Z,2.70
2018-02-08T17:25:51.487Z,2.70
2018-02-08T17:28:19.735Z,2.60
2018-02-08T17:30:47.243Z,2.60
2018-02-08T17:33:14.759Z,2.60
2018-02-08T17:35:42.246Z,2.60
2018-02-08T17:38:10.627Z,2.60
2018-02-08T17:40:38.130Z,2.60
2018-02-08T17:43:05.649Z,2.60
2018-02-08T17:45:33.226Z,2.70
2018-02-08T17:48:00.701Z,2.60
2018-02-08T17:50:28.254Z,2.70
2018-02-08T17:52:55.751Z,2.70
2018-02-08T17:55:23.211Z,2.60
2018-02-08T17:57:51.615Z,2.60
2018-02-08T18:00:19.152Z,2.60
2018-02-08T18:02:47.413Z,2.60
2018-02-08T18:08:06.600Z,2.50
2018-02-08T18:10:34.133Z,2.50
2018-02-08T18:13:01.621Z,2.60
2018-02-08T18:15:29.102Z,2.60
2018-02-08T18:17:56.846Z,2.60
2018-02-08T18:20:24.428Z,2.60
2018-02-08T18:22:51.908Z,2.50
2018-02-08T18:25:19.380Z,2.50
2018-02-08T18:27:46.877Z,2.50
2018-02-08T18:30:14.378Z,2.50
2018-02-08T18:32:42.635Z,2.50
2018-02-08T18:35:10.121Z,2.50
2018-02-08T18:37:37.593Z,2.50
2018-02-08T18:40:05.082Z,2.50
2018-02-08T18:42:32.553Z,2.50
2018-02-08T18:45:00.305Z,2.50
2018-02-08T18:47:27.839Z,2.40
2018-02-08T18:49:56.083Z,2.30
2018-02-08T18:52:25.048Z,2.30
2018-02-08T18:54:52.525Z,2.30
2018-02-08T18:57:20.022Z,2.20
2018-02-08T18:59:47.528Z,2.10
2018-02-08T19:02:15.126Z,2.10
2018-02-08T19:04:42.619Z,2.10
2018-02-08T19:07:10.095Z,2.10
2018-02-08T19:09:37.578Z,2.00
2018-02-08T19:12:05.049Z,2.00
2018-02-08T19:14:33.317Z,2.00
2018-02-08T19:17:01.632Z,2.00
2018-02-08T19:19:29.095Z,2.00
2018-02-08T19:21:56.587Z,2.00
2018-02-08T19:24:24.069Z,2.00
2018-02-08T19:26:52.344Z,1.90
2018-02-08T19:29:20.601Z,1.90
2018-02-08T19:31:48.126Z,1.90
2018-02-08T19:34:15.605Z,1.80
2018-02-08T19:36:43.089Z,1.80
2018-02-08T19:39:11.377Z,1.70
2018-02-08T19:41:38.845Z,1.70
2018-02-08T19:44:07.494Z,1.70
2018-02-08T19:46:35.753Z,1.70
2018-02-08T19:49:03.480Z,1.70
2018-02-08T19:51:30.941Z,1.70
2018-02-08T19:53:58.732Z,1.70
2018-02-08T19:56:26.209Z,1.70
2018-02-08T19:58:54.475Z,1.60
2018-02-08T20:01:21.992Z,1.60
2018-02-08T20:03:49.461Z,1.60
2018-02-08T20:06:16.950Z,1.60
2018-02-08T20:08:45.247Z,1.60
2018-02-08T20:11:13.624Z,1.60
2018-02-08T20:13:41.912Z,1.60
2018-02-08T20:16:09.378Z,1.60
2018-02-08T20:18:37.193Z,1.60
2018-02-08T20:21:04.686Z,1.60
2018-02-08T20:23:32.510Z,1.60
2018-02-08T20:26:00.008Z,1.60
2018-02-08T20:28:27.480Z,1.60
2018-02-08T20:31:11.848Z,1.70
2018-02-08T20:33:39.324Z,1.70
2018-02-08T20:36:06.825Z,1.70
2018-02-08T20:38:34.294Z,1.70
2018-02-08T20:41:01.784Z,1.70
2018-02-08T20:43:31.780Z,1.70
2018-02-08T20:45:59.261Z,1.70
2018-02-08T20:48:26.922Z,1.70
2018-02-08T20:50:54.384Z,1.70
2018-02-08T20:53:21.861Z,1.70
2018-02-08T20:55:50.116Z,1.80
2018-02-08T20:58:17.650Z,1.70
2018-02-08T21:00:45.153Z,1.80
2018-02-08T21:03:13.397Z,1.80
2018-02-08T21:05:41.058Z,1.80
2018-02-08T21:08:08.633Z,1.80
2018-02-08T21:10:37.049Z,1.80
2018-02-08T21:13:04.537Z,1.80
2018-02-08T21:15:32.021Z,1.80
2018-02-08T21:18:00.254Z,1.80
2018-02-08T21:20:27.744Z,1.80
2018-02-08T21:22:55.209Z,1.80
2018-02-08T21:25:22.693Z,1.80
2018-02-08T21:27:50.170Z,1.80
2018-02-08T21:30:17.678Z,1.80
2018-02-08T21:32:45.147Z,1.80
2018-02-08T21:35:13.386Z,1.80
2018-02-08T21:37:40.877Z,1.80
2018-02-08T21:40:09.108Z,1.80
2018-02-08T21:42:36.606Z,1.70
2018-02-08T21:45:04.842Z,1.70
2018-02-08T21:47:32.328Z,1.70
2018-02-08T21:50:00.570Z,1.70
2018-02-08T21:52:28.068Z,1.60
2018-02-08T21:54:56.315Z,1.60
2018-02-08T21:57:23.772Z,1.60
2018-02-08T21:59:51.265Z,1.60
2018-02-08T22:02:19.496Z,1.60
2018-02-08T22:04:46.984Z,1.60
2018-02-08T22:07:15.254Z,1.60
2018-02-08T22:09:43.484Z,1.60
2018-02-08T22:12:10.961Z,1.60
2018-02-08T22:14:38.495Z,1.60
2018-02-08T22:17:06.685Z,1.60
2018-02-08T22:19:34.196Z,1.60
2018-02-08T22:22:01.665Z,1.60
2018-02-08T22:24:29.132Z,1.60
2018-02-08T22:26:56.623Z,1.60
2018-02-08T22:29:24.117Z,1.60
2018-02-08T22:31:51.617Z,1.60
2018-02-08T22:34:19.090Z,1.60
2018-02-08T22:36:46.580Z,1.60
2018-02-08T22:39:14.836Z,1.60
2018-02-08T22:41:43.248Z,1.60
2018-02-08T22:44:10.737Z,1.60
2018-02-08T22:46:38.288Z,1.60
2018-02-08T22:49:05.782Z,1.60
2018-02-08T22:51:33.240Z,1.50
2018-02-08T22:54:01.504Z,1.60
2018-02-08T22:56:28.973Z,1.60
2018-02-08T22:58:57.242Z,1.60
2018-02-08T23:01:24.712Z,1.60
2018-02-08T23:03:52.944Z,1.60
2018-02-08T23:06:20.447Z,1.60
2018-02-08T23:08:48.674Z,1.60
2018-02-08T23:11:16.929Z,1.60
2018-02-08T23:13:44.389Z,1.60
2018-02-08T23:16:11.882Z,1.60
2018-02-08T23:18:39.386Z,1.60
2018-02-08T23:21:06.872Z,1.60
2018-02-08T23:23:34.363Z,1.60
2018-02-08T23:26:02.594Z,1.60
2018-02-08T23:28:30.096Z,1.60
2018-02-08T23:30:58.324Z,1.60
2018-02-08T23:33:25.788Z,1.60
2018-02-08T23:35:53.285Z,1.60
2018-02-08T23:38:21.521Z,1.50
2018-02-08T23:40:49.000Z,1.50
2018-02-08T23:43:16.475Z,1.60
2018-02-08T23:45:44.781Z,1.60
2018-02-08T23:48:12.194Z,1.50
2018-02-08T23:50:39.681Z,1.60
2018-02-08T23:53:07.141Z,1.60
2018-02-08T23:55:34.637Z,1.50
2018-02-08T23:58:02.097Z,1.50
